sensor_id;sensor_type;location;lat;lon;timestamp;P1;durP1;ratioP1;P2;durP2;ratioP2
66425;SDS011;53237;46.158;14.604;2023-02-22T00:02:12;63.08;;;39.88;;
66425;SDS011;53237;46.158;14.604;2023-02-22T00:04:49;66.13;;;41.35;;
66425;SDS011;53237;46.158;14.604;2023-02-22T00:07:15;67.28;;;40.40;;
66425;SDS011;53237;46.158;14.604;2023-02-22T00:09:41;63.67;;;39.42;;
66425;SDS011;53237;46.158;14.604;2023-02-22T00:12:07;63.60;;;39.85;;
66425;SDS011;53237;46.158;14.604;2023-02-22T00:14:34;64.60;;;41.33;;
66425;SDS011;53237;46.158;14.604;2023-02-22T00:17:00;58.33;;;39.17;;
66425;SDS011;53237;46.158;14.604;2023-02-22T00:19:26;64.13;;;41.33;;
66425;SDS011;53237;46.158;14.604;2023-02-22T00:21:54;65.15;;;41.22;;
66425;SDS011;53237;46.158;14.604;2023-02-22T00:24:22;65.00;;;41.28;;
66425;SDS011;53237;46.158;14.604;2023-02-22T00:26:49;60.90;;;39.42;;
66425;SDS011;53237;46.158;14.604;2023-02-22T00:29:15;57.88;;;38.63;;
66425;SDS011;53237;46.158;14.604;2023-02-22T00:31:41;62.42;;;38.05;;
66425;SDS011;53237;46.158;14.604;2023-02-22T00:34:07;58.63;;;38.50;;
66425;SDS011;53237;46.158;14.604;2023-02-22T00:36:33;59.15;;;38.20;;
66425;SDS011;53237;46.158;14.604;2023-02-22T00:38:59;61.72;;;40.38;;
66425;SDS011;53237;46.158;14.604;2023-02-22T00:41:25;63.88;;;42.28;;
66425;SDS011;53237;46.158;14.604;2023-02-22T00:43:51;64.28;;;39.38;;
66425;SDS011;53237;46.158;14.604;2023-02-22T00:46:17;63.85;;;38.53;;
66425;SDS011;53237;46.158;14.604;2023-02-22T00:48:43;59.38;;;38.80;;
66425;SDS011;53237;46.158;14.604;2023-02-22T00:51:09;59.33;;;37.72;;
66425;SDS011;53237;46.158;14.604;2023-02-22T00:53:36;57.72;;;37.67;;
66425;SDS011;53237;46.158;14.604;2023-02-22T00:56:01;63.13;;;40.05;;
66425;SDS011;53237;46.158;14.604;2023-02-22T00:58:28;55.83;;;36.05;;
66425;SDS011;53237;46.158;14.604;2023-02-22T01:00:54;55.83;;;35.72;;
66425;SDS011;53237;46.158;14.604;2023-02-22T01:03:20;62.40;;;38.28;;
66425;SDS011;53237;46.158;14.604;2023-02-22T01:05:46;56.78;;;36.63;;
66425;SDS011;53237;46.158;14.604;2023-02-22T01:08:13;61.17;;;36.55;;
66425;SDS011;53237;46.158;14.604;2023-02-22T01:10:39;57.95;;;37.33;;
66425;SDS011;53237;46.158;14.604;2023-02-22T01:13:06;56.80;;;36.13;;
66425;SDS011;53237;46.158;14.604;2023-02-22T01:15:33;53.92;;;34.55;;
66425;SDS011;53237;46.158;14.604;2023-02-22T01:17:59;58.15;;;36.03;;
66425;SDS011;53237;46.158;14.604;2023-02-22T01:20:25;55.45;;;34.42;;
66425;SDS011;53237;46.158;14.604;2023-02-22T01:22:55;58.03;;;35.95;;
66425;SDS011;53237;46.158;14.604;2023-02-22T01:25:22;56.67;;;35.50;;
66425;SDS011;53237;46.158;14.604;2023-02-22T01:27:49;55.88;;;35.35;;
66425;SDS011;53237;46.158;14.604;2023-02-22T01:30:16;51.33;;;34.30;;
66425;SDS011;53237;46.158;14.604;2023-02-22T01:32:44;52.33;;;33.95;;
66425;SDS011;53237;46.158;14.604;2023-02-22T01:35:11;51.90;;;33.88;;
66425;SDS011;53237;46.158;14.604;2023-02-22T01:37:38;55.92;;;35.03;;
66425;SDS011;53237;46.158;14.604;2023-02-22T01:40:05;52.05;;;34.42;;
66425;SDS011;53237;46.158;14.604;2023-02-22T01:42:31;53.13;;;34.70;;
66425;SDS011;53237;46.158;14.604;2023-02-22T01:47:42;55.22;;;33.65;;
66425;SDS011;53237;46.158;14.604;2023-02-22T01:50:08;48.08;;;32.92;;
66425;SDS011;53237;46.158;14.604;2023-02-22T01:52:34;55.67;;;33.28;;
66425;SDS011;53237;46.158;14.604;2023-02-22T01:55:01;52.97;;;33.00;;
66425;SDS011;53237;46.158;14.604;2023-02-22T01:57:29;51.20;;;33.15;;
66425;SDS011;53237;46.158;14.604;2023-02-22T01:59:58;50.97;;;32.58;;
66425;SDS011;53237;46.158;14.604;2023-02-22T02:02:26;56.60;;;35.50;;
66425;SDS011;53237;46.158;14.604;2023-02-22T02:04:53;52.22;;;33.72;;
66425;SDS011;53237;46.158;14.604;2023-02-22T02:07:20;51.65;;;32.35;;
66425;SDS011;53237;46.158;14.604;2023-02-22T02:09:51;50.38;;;32.95;;
66425;SDS011;53237;46.158;14.604;2023-02-22T02:12:19;50.70;;;33.45;;
66425;SDS011;53237;46.158;14.604;2023-02-22T02:14:47;51.88;;;34.03;;
66425;SDS011;53237;46.158;14.604;2023-02-22T02:17:14;52.03;;;33.40;;
66425;SDS011;53237;46.158;14.604;2023-02-22T02:32:53;51.30;;;32.83;;
66425;SDS011;53237;46.158;14.604;2023-02-22T02:43:02;50.35;;;32.88;;
66425;SDS011;53237;46.158;14.604;2023-02-22T02:45:32;55.65;;;32.88;;
66425;SDS011;53237;46.158;14.604;2023-02-22T02:48:00;51.85;;;32.33;;
66425;SDS011;53237;46.158;14.604;2023-02-22T02:50:28;48.17;;;30.80;;
66425;SDS011;53237;46.158;14.604;2023-02-22T02:52:56;46.65;;;30.30;;
66425;SDS011;53237;46.158;14.604;2023-02-22T02:55:24;51.83;;;32.83;;
66425;SDS011;53237;46.158;14.604;2023-02-22T02:57:51;48.05;;;30.95;;
66425;SDS011;53237;46.158;14.604;2023-02-22T03:00:19;50.85;;;31.27;;
66425;SDS011;53237;46.158;14.604;2023-02-22T03:02:51;55.40;;;32.40;;
66425;SDS011;53237;46.158;14.604;2023-02-22T03:08:08;50.70;;;31.88;;
66425;SDS011;53237;46.158;14.604;2023-02-22T03:10:44;46.88;;;29.70;;
66425;SDS011;53237;46.158;14.604;2023-02-22T03:15:45;49.72;;;30.60;;
66425;SDS011;53237;46.158;14.604;2023-02-22T03:18:14;52.25;;;31.92;;
66425;SDS011;53237;46.158;14.604;2023-02-22T03:23:43;49.78;;;30.05;;
66425;SDS011;53237;46.158;14.604;2023-02-22T03:26:12;47.05;;;30.67;;
66425;SDS011;53237;46.158;14.604;2023-02-22T03:28:39;50.38;;;30.80;;
66425;SDS011;53237;46.158;14.604;2023-02-22T03:31:08;49.45;;;31.52;;
66425;SDS011;53237;46.158;14.604;2023-02-22T03:33:57;45.45;;;30.80;;
66425;SDS011;53237;46.158;14.604;2023-02-22T03:36:23;48.92;;;31.17;;
66425;SDS011;53237;46.158;14.604;2023-02-22T03:38:50;51.08;;;31.75;;
66425;SDS011;53237;46.158;14.604;2023-02-22T03:41:20;50.05;;;32.33;;
66425;SDS011;53237;46.158;14.604;2023-02-22T03:43:52;49.13;;;32.33;;
66425;SDS011;53237;46.158;14.604;2023-02-22T03:46:19;64.88;;;36.42;;
66425;SDS011;53237;46.158;14.604;2023-02-22T03:48:50;55.15;;;32.75;;
66425;SDS011;53237;46.158;14.604;2023-02-22T03:51:18;59.22;;;36.30;;
66425;SDS011;53237;46.158;14.604;2023-02-22T03:53:44;53.20;;;32.85;;
66425;SDS011;53237;46.158;14.604;2023-02-22T03:56:34;56.50;;;32.35;;
66425;SDS011;53237;46.158;14.604;2023-02-22T03:59:08;50.30;;;29.92;;
66425;SDS011;53237;46.158;14.604;2023-02-22T04:01:35;55.95;;;33.63;;
66425;SDS011;53237;46.158;14.604;2023-02-22T04:04:01;57.75;;;34.13;;
66425;SDS011;53237;46.158;14.604;2023-02-22T04:06:27;68.75;;;34.65;;
66425;SDS011;53237;46.158;14.604;2023-02-22T04:08:53;54.50;;;32.03;;
66425;SDS011;53237;46.158;14.604;2023-02-22T04:11:19;52.92;;;32.55;;
66425;SDS011;53237;46.158;14.604;2023-02-22T04:13:45;46.97;;;30.00;;
66425;SDS011;53237;46.158;14.604;2023-02-22T04:16:11;50.60;;;31.98;;
66425;SDS011;53237;46.158;14.604;2023-02-22T04:18:37;52.25;;;31.95;;
66425;SDS011;53237;46.158;14.604;2023-02-22T04:21:03;56.47;;;32.15;;
66425;SDS011;53237;46.158;14.604;2023-02-22T04:23:29;51.53;;;32.20;;
66425;SDS011;53237;46.158;14.604;2023-02-22T04:25:55;52.22;;;32.00;;
66425;SDS011;53237;46.158;14.604;2023-02-22T04:28:21;54.95;;;32.88;;
66425;SDS011;53237;46.158;14.604;2023-02-22T04:30:47;51.97;;;31.33;;
66425;SDS011;53237;46.158;14.604;2023-02-22T04:33:13;51.40;;;32.22;;
66425;SDS011;53237;46.158;14.604;2023-02-22T04:35:40;51.88;;;32.58;;
66425;SDS011;53237;46.158;14.604;2023-02-22T04:38:06;54.85;;;31.00;;
66425;SDS011;53237;46.158;14.604;2023-02-22T04:40:33;58.60;;;32.78;;
66425;SDS011;53237;46.158;14.604;2023-02-22T04:42:59;56.63;;;33.47;;
66425;SDS011;53237;46.158;14.604;2023-02-22T04:45:26;55.67;;;32.70;;
66425;SDS011;53237;46.158;14.604;2023-02-22T04:47:52;61.45;;;34.55;;
66425;SDS011;53237;46.158;14.604;2023-02-22T04:50:18;58.38;;;33.65;;
66425;SDS011;53237;46.158;14.604;2023-02-22T04:52:44;64.78;;;36.15;;
66425;SDS011;53237;46.158;14.604;2023-02-22T04:55:10;62.58;;;37.15;;
66425;SDS011;53237;46.158;14.604;2023-02-22T04:57:36;62.08;;;35.42;;
66425;SDS011;53237;46.158;14.604;2023-02-22T05:00:03;63.10;;;36.95;;
66425;SDS011;53237;46.158;14.604;2023-02-22T05:02:29;63.83;;;35.80;;
66425;SDS011;53237;46.158;14.604;2023-02-22T05:04:55;61.15;;;35.78;;
66425;SDS011;53237;46.158;14.604;2023-02-22T05:07:21;62.15;;;35.80;;
66425;SDS011;53237;46.158;14.604;2023-02-22T05:09:47;63.90;;;37.13;;
66425;SDS011;53237;46.158;14.604;2023-02-22T05:12:13;66.63;;;38.50;;
66425;SDS011;53237;46.158;14.604;2023-02-22T05:14:39;60.38;;;36.38;;
66425;SDS011;53237;46.158;14.604;2023-02-22T05:17:06;60.03;;;35.22;;
66425;SDS011;53237;46.158;14.604;2023-02-22T05:19:32;55.65;;;34.22;;
66425;SDS011;53237;46.158;14.604;2023-02-22T05:21:58;63.47;;;35.97;;
66425;SDS011;53237;46.158;14.604;2023-02-22T05:24:24;61.33;;;36.58;;
66425;SDS011;53237;46.158;14.604;2023-02-22T05:26:50;63.35;;;35.97;;
66425;SDS011;53237;46.158;14.604;2023-02-22T05:29:17;57.60;;;34.45;;
66425;SDS011;53237;46.158;14.604;2023-02-22T05:31:43;60.75;;;35.72;;
66425;SDS011;53237;46.158;14.604;2023-02-22T05:34:10;53.38;;;33.55;;
66425;SDS011;53237;46.158;14.604;2023-02-22T05:36:36;55.58;;;34.38;;
66425;SDS011;53237;46.158;14.604;2023-02-22T05:39:02;52.95;;;34.17;;
66425;SDS011;53237;46.158;14.604;2023-02-22T05:41:29;51.95;;;33.00;;
66425;SDS011;53237;46.158;14.604;2023-02-22T05:43:55;52.20;;;33.05;;
66425;SDS011;53237;46.158;14.604;2023-02-22T05:46:21;52.63;;;32.92;;
66425;SDS011;53237;46.158;14.604;2023-02-22T05:48:47;51.65;;;32.03;;
66425;SDS011;53237;46.158;14.604;2023-02-22T05:51:13;48.13;;;33.03;;
66425;SDS011;53237;46.158;14.604;2023-02-22T05:53:39;54.28;;;33.40;;
66425;SDS011;53237;46.158;14.604;2023-02-22T05:56:06;54.45;;;34.97;;
66425;SDS011;53237;46.158;14.604;2023-02-22T05:58:32;60.17;;;36.92;;
66425;SDS011;53237;46.158;14.604;2023-02-22T06:00:58;59.10;;;36.15;;
66425;SDS011;53237;46.158;14.604;2023-02-22T06:03:24;56.25;;;35.30;;
66425;SDS011;53237;46.158;14.604;2023-02-22T06:05:50;56.90;;;36.60;;
66425;SDS011;53237;46.158;14.604;2023-02-22T06:08:16;55.90;;;34.55;;
66425;SDS011;53237;46.158;14.604;2023-02-22T06:10:43;57.60;;;38.28;;
66425;SDS011;53237;46.158;14.604;2023-02-22T06:13:09;57.58;;;37.58;;
66425;SDS011;53237;46.158;14.604;2023-02-22T06:15:35;58.60;;;37.60;;
66425;SDS011;53237;46.158;14.604;2023-02-22T06:18:01;61.55;;;38.72;;
66425;SDS011;53237;46.158;14.604;2023-02-22T06:20:28;61.05;;;39.45;;
66425;SDS011;53237;46.158;14.604;2023-02-22T06:22:55;61.47;;;38.67;;
66425;SDS011;53237;46.158;14.604;2023-02-22T06:25:22;65.43;;;40.97;;
66425;SDS011;53237;46.158;14.604;2023-02-22T06:27:49;58.17;;;38.33;;
66425;SDS011;53237;46.158;14.604;2023-02-22T06:30:15;62.60;;;39.67;;
66425;SDS011;53237;46.158;14.604;2023-02-22T06:32:42;59.72;;;37.63;;
66425;SDS011;53237;46.158;14.604;2023-02-22T06:35:08;60.47;;;37.92;;
66425;SDS011;53237;46.158;14.604;2023-02-22T06:37:34;57.55;;;37.50;;
66425;SDS011;53237;46.158;14.604;2023-02-22T06:40:00;54.53;;;35.75;;
66425;SDS011;53237;46.158;14.604;2023-02-22T06:42:27;58.95;;;38.20;;
66425;SDS011;53237;46.158;14.604;2023-02-22T06:44:53;54.17;;;36.45;;
66425;SDS011;53237;46.158;14.604;2023-02-22T06:47:19;54.08;;;36.03;;
66425;SDS011;53237;46.158;14.604;2023-02-22T06:49:50;55.70;;;36.92;;
66425;SDS011;53237;46.158;14.604;2023-02-22T06:52:16;56.03;;;36.80;;
66425;SDS011;53237;46.158;14.604;2023-02-22T06:54:42;56.28;;;36.17;;
66425;SDS011;53237;46.158;14.604;2023-02-22T06:57:08;56.95;;;36.95;;
66425;SDS011;53237;46.158;14.604;2023-02-22T06:59:34;54.60;;;36.47;;
66425;SDS011;53237;46.158;14.604;2023-02-22T07:02:00;53.20;;;35.60;;
66425;SDS011;53237;46.158;14.604;2023-02-22T07:04:27;50.33;;;35.25;;
66425;SDS011;53237;46.158;14.604;2023-02-22T07:06:53;51.10;;;33.72;;
66425;SDS011;53237;46.158;14.604;2023-02-22T07:09:20;57.05;;;35.33;;
66425;SDS011;53237;46.158;14.604;2023-02-22T07:11:46;55.22;;;35.65;;
66425;SDS011;53237;46.158;14.604;2023-02-22T07:14:12;54.92;;;35.45;;
66425;SDS011;53237;46.158;14.604;2023-02-22T07:16:38;56.80;;;37.50;;
66425;SDS011;53237;46.158;14.604;2023-02-22T07:19:04;56.10;;;36.92;;
66425;SDS011;53237;46.158;14.604;2023-02-22T07:21:30;57.25;;;37.28;;
66425;SDS011;53237;46.158;14.604;2023-02-22T07:23:56;59.10;;;37.97;;
66425;SDS011;53237;46.158;14.604;2023-02-22T07:26:25;60.42;;;39.47;;
66425;SDS011;53237;46.158;14.604;2023-02-22T07:28:52;59.40;;;38.92;;
66425;SDS011;53237;46.158;14.604;2023-02-22T07:31:18;60.55;;;37.08;;
66425;SDS011;53237;46.158;14.604;2023-02-22T07:33:47;60.15;;;37.83;;
66425;SDS011;53237;46.158;14.604;2023-02-22T07:36:13;61.10;;;39.13;;
66425;SDS011;53237;46.158;14.604;2023-02-22T07:38:42;58.38;;;38.25;;
66425;SDS011;53237;46.158;14.604;2023-02-22T07:41:08;58.60;;;39.03;;
66425;SDS011;53237;46.158;14.604;2023-02-22T07:43:34;56.90;;;37.10;;
66425;SDS011;53237;46.158;14.604;2023-02-22T07:46:01;56.58;;;36.83;;
66425;SDS011;53237;46.158;14.604;2023-02-22T07:48:28;56.50;;;37.97;;
66425;SDS011;53237;46.158;14.604;2023-02-22T07:50:55;58.92;;;37.65;;
66425;SDS011;53237;46.158;14.604;2023-02-22T07:53:22;55.78;;;37.40;;
66425;SDS011;53237;46.158;14.604;2023-02-22T07:55:48;61.10;;;40.35;;
66425;SDS011;53237;46.158;14.604;2023-02-22T07:58:16;61.38;;;42.05;;
66425;SDS011;53237;46.158;14.604;2023-02-22T08:00:42;62.72;;;42.00;;
66425;SDS011;53237;46.158;14.604;2023-02-22T08:03:10;53.72;;;36.70;;
66425;SDS011;53237;46.158;14.604;2023-02-22T08:05:37;62.95;;;42.55;;
66425;SDS011;53237;46.158;14.604;2023-02-22T08:08:03;60.72;;;40.38;;
66425;SDS011;53237;46.158;14.604;2023-02-22T08:10:30;53.58;;;37.75;;
66425;SDS011;53237;46.158;14.604;2023-02-22T08:12:56;52.15;;;37.92;;
66425;SDS011;53237;46.158;14.604;2023-02-22T08:15:33;78.40;;;47.22;;
66425;SDS011;53237;46.158;14.604;2023-02-22T08:17:59;60.28;;;39.45;;
66425;SDS011;53237;46.158;14.604;2023-02-22T08:20:29;56.58;;;40.00;;
66425;SDS011;53237;46.158;14.604;2023-02-22T08:22:55;57.88;;;39.83;;
66425;SDS011;53237;46.158;14.604;2023-02-22T08:25:23;56.75;;;38.78;;
66425;SDS011;53237;46.158;14.604;2023-02-22T08:27:50;64.00;;;44.88;;
66425;SDS011;53237;46.158;14.604;2023-02-22T08:30:18;54.67;;;40.15;;
66425;SDS011;53237;46.158;14.604;2023-02-22T08:32:45;52.38;;;37.15;;
66425;SDS011;53237;46.158;14.604;2023-02-22T08:35:11;54.97;;;39.90;;
66425;SDS011;53237;46.158;14.604;2023-02-22T08:37:40;55.78;;;38.83;;
66425;SDS011;53237;46.158;14.604;2023-02-22T08:40:07;53.63;;;39.67;;
66425;SDS011;53237;46.158;14.604;2023-02-22T08:42:33;53.85;;;38.55;;
66425;SDS011;53237;46.158;14.604;2023-02-22T08:44:59;58.63;;;39.45;;
66425;SDS011;53237;46.158;14.604;2023-02-22T08:47:25;52.67;;;36.78;;
66425;SDS011;53237;46.158;14.604;2023-02-22T08:49:51;72.75;;;49.85;;
66425;SDS011;53237;46.158;14.604;2023-02-22T08:52:18;50.83;;;36.83;;
66425;SDS011;53237;46.158;14.604;2023-02-22T08:54:45;53.63;;;35.88;;
66425;SDS011;53237;46.158;14.604;2023-02-22T08:57:11;48.58;;;35.17;;
66425;SDS011;53237;46.158;14.604;2023-02-22T08:59:37;51.83;;;35.10;;
66425;SDS011;53237;46.158;14.604;2023-02-22T09:02:03;54.47;;;37.50;;
66425;SDS011;53237;46.158;14.604;2023-02-22T09:04:29;48.30;;;33.92;;
66425;SDS011;53237;46.158;14.604;2023-02-22T09:06:55;49.72;;;34.78;;
66425;SDS011;53237;46.158;14.604;2023-02-22T09:09:21;46.08;;;31.48;;
66425;SDS011;53237;46.158;14.604;2023-02-22T09:11:48;44.13;;;30.95;;
66425;SDS011;53237;46.158;14.604;2023-02-22T09:14:14;42.08;;;30.30;;
66425;SDS011;53237;46.158;14.604;2023-02-22T09:16:41;46.28;;;31.60;;
66425;SDS011;53237;46.158;14.604;2023-02-22T09:19:07;45.65;;;30.67;;
66425;SDS011;53237;46.158;14.604;2023-02-22T09:21:33;43.20;;;28.98;;
66425;SDS011;53237;46.158;14.604;2023-02-22T09:23:59;44.35;;;29.63;;
66425;SDS011;53237;46.158;14.604;2023-02-22T09:26:32;51.95;;;32.53;;
66425;SDS011;53237;46.158;14.604;2023-02-22T09:28:58;42.15;;;28.85;;
66425;SDS011;53237;46.158;14.604;2023-02-22T09:31:24;38.08;;;29.35;;
66425;SDS011;53237;46.158;14.604;2023-02-22T09:33:50;42.28;;;30.15;;
66425;SDS011;53237;46.158;14.604;2023-02-22T09:36:16;50.95;;;32.63;;
66425;SDS011;53237;46.158;14.604;2023-02-22T09:38:45;41.78;;;28.20;;
66425;SDS011;53237;46.158;14.604;2023-02-22T09:48:39;45.03;;;31.05;;
66425;SDS011;53237;46.158;14.604;2023-02-22T09:51:10;44.53;;;29.52;;
66425;SDS011;53237;46.158;14.604;2023-02-22T09:53:41;43.33;;;28.42;;
66425;SDS011;53237;46.158;14.604;2023-02-22T09:56:09;44.33;;;28.65;;
66425;SDS011;53237;46.158;14.604;2023-02-22T10:01:29;36.55;;;24.15;;
66425;SDS011;53237;46.158;14.604;2023-02-22T10:06:37;34.55;;;24.80;;
66425;SDS011;53237;46.158;14.604;2023-02-22T10:09:08;38.40;;;26.15;;
66425;SDS011;53237;46.158;14.604;2023-02-22T10:22:37;37.70;;;25.63;;
66425;SDS011;53237;46.158;14.604;2023-02-22T10:25:14;41.15;;;25.45;;
66425;SDS011;53237;46.158;14.604;2023-02-22T10:28:26;45.90;;;27.98;;
66425;SDS011;53237;46.158;14.604;2023-02-22T10:30:33;36.67;;;24.67;;
66425;SDS011;53237;46.158;14.604;2023-02-22T10:33:06;44.30;;;29.48;;
66425;SDS011;53237;46.158;14.604;2023-02-22T10:35:35;38.00;;;26.02;;
66425;SDS011;53237;46.158;14.604;2023-02-22T10:38:50;36.42;;;25.50;;
66425;SDS011;53237;46.158;14.604;2023-02-22T10:43:20;51.05;;;33.10;;
66425;SDS011;53237;46.158;14.604;2023-02-22T10:45:47;54.85;;;34.70;;
66425;SDS011;53237;46.158;14.604;2023-02-22T10:48:17;35.60;;;25.83;;
66425;SDS011;53237;46.158;14.604;2023-02-22T10:50:45;49.67;;;32.83;;
66425;SDS011;53237;46.158;14.604;2023-02-22T10:53:11;53.25;;;35.70;;
66425;SDS011;53237;46.158;14.604;2023-02-22T10:58:24;48.72;;;31.35;;
66425;SDS011;53237;46.158;14.604;2023-02-22T11:00:50;43.47;;;29.83;;
66425;SDS011;53237;46.158;14.604;2023-02-22T11:03:17;49.47;;;33.72;;
66425;SDS011;53237;46.158;14.604;2023-02-22T11:05:44;49.92;;;32.65;;
66425;SDS011;53237;46.158;14.604;2023-02-22T11:11:16;52.58;;;35.08;;
66425;SDS011;53237;46.158;14.604;2023-02-22T11:13:38;33.78;;;24.98;;
66425;SDS011;53237;46.158;14.604;2023-02-22T11:16:26;38.35;;;27.60;;
66425;SDS011;53237;46.158;14.604;2023-02-22T11:18:57;36.28;;;24.60;;
66425;SDS011;53237;46.158;14.604;2023-02-22T11:21:24;34.22;;;24.65;;
66425;SDS011;53237;46.158;14.604;2023-02-22T11:23:50;38.28;;;25.90;;
66425;SDS011;53237;46.158;14.604;2023-02-22T11:26:25;36.00;;;24.95;;
66425;SDS011;53237;46.158;14.604;2023-02-22T11:28:52;48.10;;;33.28;;
66425;SDS011;53237;46.158;14.604;2023-02-22T11:31:26;33.95;;;24.45;;
66425;SDS011;53237;46.158;14.604;2023-02-22T11:34:01;35.17;;;24.95;;
66425;SDS011;53237;46.158;14.604;2023-02-22T11:36:34;34.00;;;24.65;;
66425;SDS011;53237;46.158;14.604;2023-02-22T11:39:02;44.25;;;29.02;;
66425;SDS011;53237;46.158;14.604;2023-02-22T11:41:30;47.38;;;31.38;;
66425;SDS011;53237;46.158;14.604;2023-02-22T11:44:12;48.88;;;33.38;;
66425;SDS011;53237;46.158;14.604;2023-02-22T11:46:39;52.85;;;33.80;;
66425;SDS011;53237;46.158;14.604;2023-02-22T11:49:07;45.15;;;31.17;;
66425;SDS011;53237;46.158;14.604;2023-02-22T11:54:18;46.50;;;32.95;;
66425;SDS011;53237;46.158;14.604;2023-02-22T11:56:53;40.13;;;26.42;;
66425;SDS011;53237;46.158;14.604;2023-02-22T12:01:54;36.65;;;25.27;;
66425;SDS011;53237;46.158;14.604;2023-02-22T12:07:10;55.15;;;36.47;;
66425;SDS011;53237;46.158;14.604;2023-02-22T12:12:20;49.65;;;34.92;;
66425;SDS011;53237;46.158;14.604;2023-02-22T12:14:59;52.67;;;35.35;;
66425;SDS011;53237;46.158;14.604;2023-02-22T12:22:43;36.72;;;24.25;;
66425;SDS011;53237;46.158;14.604;2023-02-22T12:27:45;44.55;;;29.20;;
66425;SDS011;53237;46.158;14.604;2023-02-22T12:30:20;46.10;;;31.48;;
66425;SDS011;53237;46.158;14.604;2023-02-22T12:32:54;46.28;;;31.30;;
66425;SDS011;53237;46.158;14.604;2023-02-22T12:35:24;33.03;;;22.92;;
66425;SDS011;53237;46.158;14.604;2023-02-22T12:40:23;35.65;;;24.80;;
66425;SDS011;53237;46.158;14.604;2023-02-22T12:47:57;32.53;;;23.15;;
66425;SDS011;53237;46.158;14.604;2023-02-22T12:50:26;34.70;;;23.63;;
66425;SDS011;53237;46.158;14.604;2023-02-22T12:53:36;32.83;;;23.25;;
66425;SDS011;53237;46.158;14.604;2023-02-22T12:55:49;37.85;;;26.65;;
66425;SDS011;53237;46.158;14.604;2023-02-22T13:05:41;33.70;;;22.15;;
66425;SDS011;53237;46.158;14.604;2023-02-22T13:13:25;40.42;;;27.30;;
66425;SDS011;53237;46.158;14.604;2023-02-22T13:21:22;41.35;;;29.40;;
66425;SDS011;53237;46.158;14.604;2023-02-22T13:26:34;30.80;;;21.88;;
66425;SDS011;53237;46.158;14.604;2023-02-22T13:29:04;32.95;;;22.35;;
66425;SDS011;53237;46.158;14.604;2023-02-22T13:50:18;40.05;;;27.42;;
66425;SDS011;53237;46.158;14.604;2023-02-22T13:52:48;33.78;;;23.13;;
66425;SDS011;53237;46.158;14.604;2023-02-22T13:55:17;38.60;;;25.58;;
66425;SDS011;53237;46.158;14.604;2023-02-22T13:57:45;38.78;;;26.15;;
66425;SDS011;53237;46.158;14.604;2023-02-22T14:08:06;45.25;;;28.33;;
66425;SDS011;53237;46.158;14.604;2023-02-22T14:13:05;45.95;;;29.15;;
66425;SDS011;53237;46.158;14.604;2023-02-22T14:15:31;41.55;;;28.33;;
66425;SDS011;53237;46.158;14.604;2023-02-22T14:17:58;47.60;;;30.48;;
66425;SDS011;53237;46.158;14.604;2023-02-22T14:20:35;44.30;;;29.38;;
66425;SDS011;53237;46.158;14.604;2023-02-22T14:25:46;46.28;;;31.60;;
66425;SDS011;53237;46.158;14.604;2023-02-22T14:31:10;38.90;;;26.92;;
66425;SDS011;53237;46.158;14.604;2023-02-22T14:33:57;44.10;;;28.58;;
66425;SDS011;53237;46.158;14.604;2023-02-22T14:39:13;44.88;;;31.15;;
66425;SDS011;53237;46.158;14.604;2023-02-22T14:41:40;39.55;;;26.85;;
66425;SDS011;53237;46.158;14.604;2023-02-22T14:44:07;39.95;;;26.50;;
66425;SDS011;53237;46.158;14.604;2023-02-22T14:46:37;42.63;;;28.42;;
66425;SDS011;53237;46.158;14.604;2023-02-22T14:49:05;43.13;;;28.83;;
66425;SDS011;53237;46.158;14.604;2023-02-22T14:51:49;43.97;;;28.00;;
66425;SDS011;53237;46.158;14.604;2023-02-22T14:57:08;42.63;;;29.00;;
66425;SDS011;53237;46.158;14.604;2023-02-22T15:02:06;40.88;;;27.38;;
66425;SDS011;53237;46.158;14.604;2023-02-22T15:04:35;37.88;;;25.95;;
66425;SDS011;53237;46.158;14.604;2023-02-22T15:07:06;38.70;;;26.40;;
66425;SDS011;53237;46.158;14.604;2023-02-22T15:09:33;42.10;;;27.80;;
66425;SDS011;53237;46.158;14.604;2023-02-22T15:14:27;41.35;;;29.58;;
66425;SDS011;53237;46.158;14.604;2023-02-22T15:16:55;48.72;;;30.10;;
66425;SDS011;53237;46.158;14.604;2023-02-22T15:19:29;41.80;;;28.50;;
66425;SDS011;53237;46.158;14.604;2023-02-22T15:21:57;42.30;;;28.60;;
66425;SDS011;53237;46.158;14.604;2023-02-22T15:24:24;39.75;;;26.83;;
66425;SDS011;53237;46.158;14.604;2023-02-22T15:26:51;40.90;;;28.98;;
66425;SDS011;53237;46.158;14.604;2023-02-22T15:31:47;38.78;;;27.60;;
66425;SDS011;53237;46.158;14.604;2023-02-22T15:36:40;44.55;;;30.40;;
66425;SDS011;53237;46.158;14.604;2023-02-22T15:39:17;48.83;;;32.72;;
66425;SDS011;53237;46.158;14.604;2023-02-22T15:41:44;49.88;;;30.88;;
66425;SDS011;53237;46.158;14.604;2023-02-22T15:44:10;46.55;;;30.50;;
66425;SDS011;53237;46.158;14.604;2023-02-22T15:46:38;48.33;;;32.72;;
66425;SDS011;53237;46.158;14.604;2023-02-22T15:51:31;48.80;;;30.30;;
66425;SDS011;53237;46.158;14.604;2023-02-22T15:53:58;45.45;;;31.65;;
66425;SDS011;53237;46.158;14.604;2023-02-22T15:56:30;45.35;;;30.73;;
66425;SDS011;53237;46.158;14.604;2023-02-22T15:59:01;47.45;;;31.65;;
66425;SDS011;53237;46.158;14.604;2023-02-22T16:01:35;48.72;;;30.75;;
66425;SDS011;53237;46.158;14.604;2023-02-22T16:04:01;49.93;;;33.03;;
66425;SDS011;53237;46.158;14.604;2023-02-22T16:06:30;59.88;;;35.95;;
66425;SDS011;53237;46.158;14.604;2023-02-22T16:09:05;42.90;;;27.40;;
66425;SDS011;53237;46.158;14.604;2023-02-22T16:11:33;48.97;;;32.90;;
66425;SDS011;53237;46.158;14.604;2023-02-22T16:14:03;51.67;;;35.05;;
66425;SDS011;53237;46.158;14.604;2023-02-22T16:16:31;45.08;;;31.00;;
66425;SDS011;53237;46.158;14.604;2023-02-22T16:21:49;44.63;;;29.58;;
66425;SDS011;53237;46.158;14.604;2023-02-22T16:24:27;52.15;;;32.28;;
66425;SDS011;53237;46.158;14.604;2023-02-22T16:29:28;62.90;;;41.28;;
66425;SDS011;53237;46.158;14.604;2023-02-22T16:31:54;54.75;;;36.13;;
66425;SDS011;53237;46.158;14.604;2023-02-22T16:34:20;47.35;;;32.22;;
66425;SDS011;53237;46.158;14.604;2023-02-22T16:36:47;53.22;;;34.22;;
66425;SDS011;53237;46.158;14.604;2023-02-22T16:39:25;49.72;;;33.03;;
66425;SDS011;53237;46.158;14.604;2023-02-22T16:41:52;34.80;;;25.08;;
66425;SDS011;53237;46.158;14.604;2023-02-22T16:44:19;38.20;;;27.30;;
66425;SDS011;53237;46.158;14.604;2023-02-22T16:46:47;43.65;;;29.95;;
66425;SDS011;53237;46.158;14.604;2023-02-22T16:49:13;53.42;;;31.83;;
66425;SDS011;53237;46.158;14.604;2023-02-22T16:51:49;50.90;;;31.25;;
66425;SDS011;53237;46.158;14.604;2023-02-22T16:54:20;34.63;;;25.35;;
66425;SDS011;53237;46.158;14.604;2023-02-22T16:56:48;34.63;;;24.85;;
66425;SDS011;53237;46.158;14.604;2023-02-22T16:59:15;48.60;;;31.48;;
66425;SDS011;53237;46.158;14.604;2023-02-22T17:01:41;65.13;;;42.85;;
66425;SDS011;53237;46.158;14.604;2023-02-22T17:04:14;53.58;;;30.90;;